Main page
METAR-TAF:

METAR-TAF

Airports :

Kryvyi Rih International Airport

Kryvyi Rih, Ukraine

latitude: 48-03N, longitude: 033-13-12E, elevation: 124 m

Current weather observation

The report was made 33 minutes ago, at 08:00 UTC
Wind 10 kt from the Southwest, varying between South and West/Southwest
Temperature 12°C
Humidity 19%
Pressure 1015 hPa
Visibility 10 km or more
no clouds below 1500 m and no cumulonimbus

METAR: UKDR 030800Z 22005MPS 180V250 CAVOK 12/M11 Q1015 R36/09//70 NOSIG

Time: 11:33 (08:33 UTC)

Forecast

The report was made 3 hours and 24 minutes ago, at 05:09 UTC
Forecast valid from 03 at 06 UTC to 04 at 06 UTC
Wind 12 kt from the Southwest
Visibility 10 km or more
no clouds below 1500 m and no cumulonimbus

TAF: UKDR 030509Z 0306/0406 23006MPS CAVOK TX13/0312Z TN00/0404Z

Weather observations and forecasts of more than 4000 airports (METAR and TAF reports).

The available stations are represented by yellow and red dots on the map.

Hover mouse over dot to see the name of the station.

Then click to see weather observations and forecasts.

To change the map : click on the green buttons with a black cross to zoom in, on the green button with a dash to zoom out, or on the green arrows for adjacent maps.


METAR-TAF: